Time;durP1;ratioP1;P1;durP2;ratioP2;P2;SDS_P1;SDS_P2;PMS_P1;PMS_P2;Temp;Humidity;BMP_temperature;BMP_pressure;BME280_temperature;BME280_humidity;BME280_pressure;Samples;Min_cycle;Max_cycle;Signal;HPM_P1;HPM_P2
2023/08/01 00:02:20;;;;;;;11.57;4.28;;;17.20;99.90;;;;;;5012813;28;20026;-88
2023/08/01 00:04:46;;;;;;;8.90;3.95;;;17.20;99.90;;;;;;5011788;28;20037;-88
2023/08/01 00:07:11;;;;;;;8.15;3.67;;;17.10;99.90;;;;;;5012329;28;20105;-88
2023/08/01 00:09:37;;;;;;;6.60;2.83;;;17.20;99.90;;;;;;5013027;28;20469;-88
2023/08/01 00:12:03;;;;;;;7.85;3.03;;;17.20;99.90;;;;;;5012092;28;20030;-88
2023/08/01 00:14:28;;;;;;;7.60;2.80;;;17.10;99.90;;;;;;5012814;28;20022;-88
2023/08/01 00:16:54;;;;;;;7.82;3.88;;;17.10;99.90;;;;;;5012863;28;20030;-88
2023/08/01 00:19:19;;;;;;;11.18;3.60;;;17.10;99.90;;;;;;5012146;28;20029;-89
2023/08/01 00:21:46;;;;;;;7.22;3.30;;;17.10;99.90;;;;;;5015007;28;20030;-88
2023/08/01 00:24:12;;;;;;;11.32;3.42;;;17.10;99.90;;;;;;5016726;28;20026;-88
2023/08/01 00:26:38;;;;;;;7.10;3.08;;;17.10;99.90;;;;;;5015989;28;20565;-89
2023/08/01 00:29:03;;;;;;;8.95;3.00;;;17.10;99.90;;;;;;5016410;28;20116;-88
2023/08/01 00:31:29;;;;;;;11.45;3.83;;;17.60;99.90;;;;;;5016239;28;20060;-89
2023/08/01 00:33:54;;;;;;;8.55;3.00;;;17.10;99.90;;;;;;5016363;28;20026;-88
2023/08/01 00:36:20;;;;;;;6.00;2.88;;;17.00;99.90;;;;;;5016499;28;20520;-88
2023/08/01 00:38:46;;;;;;;12.05;3.25;;;17.00;99.90;;;;;;5015549;28;20112;-89
2023/08/01 00:41:11;;;;;;;8.38;2.92;;;17.00;99.90;;;;;;5015745;28;20033;-88
2023/08/01 00:43:37;;;;;;;6.85;3.00;;;17.00;99.90;;;;;;5016135;28;20116;-88
2023/08/01 00:46:05;;;;;;;6.18;3.45;;;17.00;99.90;;;;;;5017634;28;20153;-88
2023/08/01 00:48:31;;;;;;;9.15;3.50;;;17.00;99.90;;;;;;5016034;28;20029;-88
2023/08/01 00:51:04;;;;;;;6.40;2.90;;;17.00;99.90;;;;;;5016653;28;20029;-90
2023/08/01 00:53:31;;;;;;;10.30;3.30;;;17.00;99.90;;;;;;5015752;28;20588;-88
2023/08/01 00:55:58;;;;;;;10.80;3.47;;;17.00;99.90;;;;;;5016284;28;20087;-88
2023/08/01 00:58:24;;;;;;;10.40;3.80;;;16.80;99.90;;;;;;5016217;28;20026;-88
2023/08/01 01:00:49;;;;;;;13.68;4.93;;;16.80;99.90;;;;;;5001938;28;20026;-88
2023/08/01 01:03:16;;;;;;;11.82;4.25;;;17.40;99.90;;;;;;4996900;28;20050;-88
2023/08/01 01:05:53;;;;;;;7.35;4.53;;;17.30;99.90;;;;;;4996784;28;20030;-88
2023/08/01 01:08:20;;;;;;;11.90;4.72;;;16.90;99.90;;;;;;4996097;28;20354;-88
2023/08/01 01:10:45;;;;;;;15.75;4.70;;;16.80;99.90;;;;;;4996334;28;20026;-89
2023/08/01 01:13:11;;;;;;;11.68;4.45;;;16.80;99.90;;;;;;4996479;28;20427;-88
2023/08/01 01:15:36;;;;;;;11.85;5.80;;;16.80;99.90;;;;;;4996188;28;20469;-89
2023/08/01 01:18:02;;;;;;;11.25;4.57;;;16.80;99.90;;;;;;4997983;28;20101;-88
2023/08/01 01:20:35;;;;;;;17.08;5.78;;;16.80;99.90;;;;;;4997917;28;20033;-88
2023/08/01 01:23:03;;;;;;;9.82;5.55;;;16.80;99.90;;;;;;5001823;28;20069;-88
2023/08/01 01:25:30;;;;;;;8.75;3.83;;;16.80;99.90;;;;;;4999932;28;20030;-88
2023/08/01 01:27:57;;;;;;;14.70;4.38;;;16.80;99.90;;;;;;5020235;28;20034;-88
2023/08/01 01:30:24;;;;;;;12.13;4.68;;;16.80;99.90;;;;;;5038139;28;20026;-88
2023/08/01 01:32:50;;;;;;;8.38;4.15;;;16.80;99.90;;;;;;5030228;28;20059;-89
2023/08/01 01:35:16;;;;;;;8.40;3.78;;;17.20;99.90;;;;;;5015534;28;20026;-89
2023/08/01 01:37:42;;;;;;;6.60;4.07;;;16.90;99.90;;;;;;5014694;28;20033;-89
2023/08/01 01:40:07;;;;;;;10.15;3.88;;;16.90;99.90;;;;;;5024784;28;20045;-88
2023/08/01 01:42:33;;;;;;;14.98;5.07;;;16.90;99.90;;;;;;5029995;28;20034;-89
2023/08/01 01:44:59;;;;;;;12.60;3.67;;;16.90;99.90;;;;;;5015527;28;20461;-89
2023/08/01 01:47:24;;;;;;;10.60;4.32;;;17.10;99.90;;;;;;5015612;28;20117;-88
2023/08/01 01:49:50;;;;;;;11.23;4.30;;;17.00;99.90;;;;;;5014603;28;20441;-89
2023/08/01 01:52:15;;;;;;;6.90;3.85;;;17.00;99.90;;;;;;5015281;28;20041;-89
2023/08/01 01:54:41;;;;;;;11.82;4.07;;;17.00;99.90;;;;;;5015015;28;20022;-89
2023/08/01 01:57:06;;;;;;;15.88;3.95;;;17.10;99.90;;;;;;5014077;28;20096;-89
2023/08/01 01:59:32;;;;;;;9.40;3.60;;;17.40;99.90;;;;;;5015679;28;20045;-89
2023/08/01 02:01:57;;;;;;;11.88;4.50;;;17.20;99.90;;;;;;5014941;28;20061;-89
2023/08/01 02:04:23;;;;;;;11.80;4.10;;;17.20;99.90;;;;;;5014456;28;20033;-89
2023/08/01 02:06:49;;;;;;;7.68;3.22;;;17.20;99.90;;;;;;5014455;28;20469;-89
2023/08/01 02:09:16;;;;;;;10.15;3.90;;;17.20;99.90;;;;;;5014646;28;20033;-88
2023/08/01 02:11:41;;;;;;;18.08;4.25;;;17.20;99.90;;;;;;5013975;28;20030;-89
2023/08/01 02:14:07;;;;;;;9.55;3.85;;;17.20;99.90;;;;;;5014726;28;20032;-89
2023/08/01 02:16:32;;;;;;;5.97;3.25;;;17.30;99.90;;;;;;5014626;28;20043;-89
2023/08/01 02:18:58;;;;;;;10.20;3.42;;;17.20;99.90;;;;;;5014160;28;20414;-89
2023/08/01 02:21:23;;;;;;;8.45;3.13;;;17.30;99.90;;;;;;5014665;28;20022;-88
2023/08/01 02:23:49;;;;;;;11.25;4.13;;;17.20;99.90;;;;;;5014123;28;20025;-88
2023/08/01 02:26:14;;;;;;;6.43;4.13;;;17.20;99.90;;;;;;5013888;28;20018;-89
2023/08/01 02:28:40;;;;;;;8.07;3.47;;;17.20;99.90;;;;;;5013772;28;20037;-88
2023/08/01 02:31:06;;;;;;;19.27;4.78;;;17.50;99.90;;;;;;5015379;28;20033;-95
2023/08/01 02:33:31;;;;;;;6.78;3.22;;;17.20;99.90;;;;;;5024323;28;20045;-93
2023/08/01 02:35:57;;;;;;;9.10;3.58;;;18.10;99.90;;;;;;5022508;28;20033;-89
2023/08/01 02:38:23;;;;;;;12.23;4.10;;;17.30;99.90;;;;;;5015062;28;20025;-89
2023/08/01 02:40:48;;;;;;;9.98;3.53;;;17.20;99.90;;;;;;5013828;28;20381;-89
2023/08/01 02:43:14;;;;;;;7.28;3.53;;;17.20;99.90;;;;;;5014074;28;20556;-90
2023/08/01 02:45:41;;;;;;;8.85;3.58;;;17.20;99.90;;;;;;5013686;28;20025;-89
2023/08/01 02:48:07;;;;;;;7.05;3.22;;;17.10;99.90;;;;;;5013656;28;20026;-88
2023/08/01 02:50:32;;;;;;;5.47;3.28;;;17.10;99.90;;;;;;5014220;28;20034;-89
2023/08/01 02:52:58;;;;;;;6.75;3.50;;;17.10;99.90;;;;;;5013701;28;20030;-88
2023/08/01 02:55:24;;;;;;;7.88;3.70;;;17.10;99.90;;;;;;5014413;28;20022;-89
2023/08/01 02:57:49;;;;;;;10.10;3.35;;;17.10;99.90;;;;;;5013392;28;20025;-88
2023/08/01 03:00:17;;;;;;;8.00;3.30;;;17.10;99.90;;;;;;5013268;28;20073;-89
2023/08/01 03:02:43;;;;;;;10.15;4.30;;;17.10;99.90;;;;;;5013749;28;20037;-89
2023/08/01 03:05:09;;;;;;;12.15;4.05;;;17.10;99.90;;;;;;5014011;28;20484;-88
2023/08/01 03:07:34;;;;;;;9.25;4.22;;;17.10;99.90;;;;;;5013491;28;20050;-88
2023/08/01 03:10:00;;;;;;;15.25;5.47;;;17.10;99.90;;;;;;5013919;28;20029;-88
2023/08/01 03:12:25;;;;;;;16.05;4.63;;;17.00;99.90;;;;;;5013747;28;20117;-88
2023/08/01 03:14:51;;;;;;;10.23;4.22;;;17.20;99.90;;;;;;5013067;28;20025;-88
2023/08/01 03:17:17;;;;;;;15.15;5.63;;;16.90;99.90;;;;;;5018497;28;20489;-89
2023/08/01 03:19:42;;;;;;;12.18;4.95;;;16.80;99.90;;;;;;5021354;28;20026;-89
2023/08/01 03:22:09;;;;;;;13.43;6.05;;;16.80;99.90;;;;;;5021476;28;20029;-89
2023/08/01 03:24:35;;;;;;;12.07;6.03;;;16.80;99.90;;;;;;5021852;28;20022;-88
2023/08/01 03:27:01;;;;;;;18.45;5.53;;;17.00;99.90;;;;;;5018641;28;20076;-87
2023/08/01 03:29:26;;;;;;;13.75;4.82;;;16.80;99.90;;;;;;5027512;28;20057;-88
2023/08/01 03:31:53;;;;;;;7.88;4.40;;;16.80;99.90;;;;;;5013169;28;20033;-88
2023/08/01 03:34:18;;;;;;;11.18;4.88;;;16.80;99.90;;;;;;5013912;28;20022;-88
2023/08/01 03:36:44;;;;;;;12.45;5.45;;;16.80;99.90;;;;;;5013107;28;20049;-89
2023/08/01 03:39:10;;;;;;;12.75;5.05;;;16.90;99.90;;;;;;5013335;28;20084;-89
2023/08/01 03:41:36;;;;;;;14.57;5.22;;;16.90;99.90;;;;;;5000366;28;20026;-89
2023/08/01 03:44:02;;;;;;;18.80;6.13;;;17.00;99.90;;;;;;4993241;28;20046;-89
2023/08/01 03:46:28;;;;;;;19.25;6.35;;;16.80;99.90;;;;;;4993236;28;20027;-88
2023/08/01 03:48:54;;;;;;;22.70;5.95;;;16.80;99.90;;;;;;4992825;28;20018;-90
2023/08/01 03:51:20;;;;;;;19.75;5.80;;;16.90;99.90;;;;;;4993378;28;20022;-88
2023/08/01 03:53:46;;;;;;;13.88;5.18;;;16.80;99.90;;;;;;4993449;28;20496;-89
2023/08/01 03:56:12;;;;;;;16.75;6.32;;;16.70;99.90;;;;;;4991981;28;20113;-88
2023/08/01 03:58:37;;;;;;;14.40;5.63;;;16.60;99.90;;;;;;4993128;28;20137;-88
2023/08/01 04:01:03;;;;;;;19.52;5.85;;;16.70;99.90;;;;;;4993614;28;20062;-88
2023/08/01 04:03:28;;;;;;;21.83;6.05;;;16.70;99.90;;;;;;4992420;28;20030;-89
2023/08/01 04:05:54;;;;;;;14.73;6.03;;;16.60;99.90;;;;;;4993567;28;20056;-89
2023/08/01 04:08:20;;;;;;;18.85;6.22;;;16.70;99.90;;;;;;4993427;28;20059;-89
2023/08/01 04:10:45;;;;;;;16.10;5.93;;;16.70;99.90;;;;;;4992733;28;20081;-89
2023/08/01 04:13:12;;;;;;;12.77;5.47;;;16.70;99.90;;;;;;4993343;28;20082;-88
2023/08/01 04:15:38;;;;;;;12.00;5.57;;;16.70;99.90;;;;;;4993747;28;20061;-89
2023/08/01 04:18:03;;;;;;;13.00;5.55;;;16.70;99.90;;;;;;4993187;28;20034;-88
2023/08/01 04:20:29;;;;;;;21.10;6.43;;;16.80;99.90;;;;;;4993330;28;20022;-89
2023/08/01 04:22:54;;;;;;;16.02;6.18;;;16.60;99.90;;;;;;4996106;28;20033;-88
2023/08/01 04:25:20;;;;;;;17.25;6.53;;;16.60;99.90;;;;;;4994956;28;20485;-89
2023/08/01 04:27:45;;;;;;;13.50;5.88;;;16.60;99.90;;;;;;4995827;28;20030;-89
2023/08/01 04:30:11;;;;;;;17.58;5.80;;;16.60;99.90;;;;;;5005640;28;20030;-87
2023/08/01 04:32:37;;;;;;;13.45;5.05;;;16.60;99.90;;;;;;5029427;28;20081;-93
2023/08/01 04:35:03;;;;;;;11.30;4.95;;;16.60;99.90;;;;;;5034891;28;20022;-87
2023/08/01 04:37:28;;;;;;;16.77;4.90;;;16.60;99.90;;;;;;4994091;28;20057;-88
2023/08/01 04:39:54;;;;;;;13.23;4.22;;;16.60;99.90;;;;;;4994215;28;20014;-88
2023/08/01 04:42:20;;;;;;;16.50;5.75;;;16.60;99.90;;;;;;4992931;28;20023;-88
2023/08/01 04:44:45;;;;;;;11.50;4.97;;;17.00;99.90;;;;;;4992313;28;20077;-88
2023/08/01 04:47:11;;;;;;;17.17;5.40;;;16.50;99.90;;;;;;4999551;28;20026;-88
2023/08/01 04:49:36;;;;;;;12.77;4.93;;;16.60;99.90;;;;;;4994312;28;20030;-88
2023/08/01 04:52:03;;;;;;;15.95;5.18;;;16.60;99.90;;;;;;4992949;28;20041;-88
2023/08/01 04:54:29;;;;;;;15.18;5.22;;;16.60;99.90;;;;;;4992349;28;20113;-88
2023/08/01 04:56:55;;;;;;;16.55;5.15;;;16.50;99.90;;;;;;4995275;28;20090;-88
2023/08/01 04:59:20;;;;;;;13.55;5.07;;;17.00;99.90;;;;;;5002136;28;20450;-88
2023/08/01 05:01:46;;;;;;;12.55;5.68;;;16.50;99.90;;;;;;4992392;28;20572;-88
2023/08/01 05:04:11;;;;;;;11.95;4.63;;;16.50;99.90;;;;;;4993047;28;20113;-89
2023/08/01 05:06:37;;;;;;;17.88;5.18;;;17.20;99.90;;;;;;4991838;28;20433;-89
2023/08/01 05:09:03;;;;;;;12.77;4.45;;;16.60;99.90;;;;;;4995594;28;20023;-88
2023/08/01 05:11:28;;;;;;;25.30;6.18;;;16.50;99.90;;;;;;4996119;28;20023;-89
2023/08/01 05:13:54;;;;;;;13.57;4.65;;;16.50;99.90;;;;;;4995780;28;20089;-88
2023/08/01 05:16:19;;;;;;;18.02;4.88;;;16.50;99.90;;;;;;5003388;28;20129;-89
2023/08/01 05:18:45;;;;;;;11.88;4.65;;;16.50;99.90;;;;;;5019793;28;20081;-88
2023/08/01 05:21:10;;;;;;;15.43;4.57;;;16.50;99.90;;;;;;5016643;28;20022;-91
2023/08/01 05:23:36;;;;;;;16.73;5.38;;;16.50;99.90;;;;;;5015856;28;20061;-88
2023/08/01 05:26:01;;;;;;;15.55;4.53;;;17.20;99.90;;;;;;5014282;28;20026;-88
2023/08/01 05:28:27;;;;;;;15.45;4.45;;;17.50;99.90;;;;;;5012881;28;20081;-88
2023/08/01 05:30:53;;;;;;;10.80;4.30;;;16.60;99.90;;;;;;5013819;28;20028;-88
2023/08/01 05:33:19;;;;;;;9.50;3.60;;;16.60;99.90;;;;;;5014546;28;20040;-88
2023/08/01 05:35:44;;;;;;;7.18;3.60;;;16.60;99.90;;;;;;5014287;28;20028;-88
2023/08/01 05:38:10;;;;;;;8.57;3.55;;;16.60;99.90;;;;;;5014833;28;20026;-87
2023/08/01 05:40:35;;;;;;;10.38;3.97;;;16.60;99.90;;;;;;5014502;28;20029;-85
2023/08/01 05:43:01;;;;;;;12.85;4.55;;;16.60;99.90;;;;;;5014605;28;20561;-87
2023/08/01 05:45:27;;;;;;;8.80;4.00;;;16.70;99.90;;;;;;5014178;28;20025;-86
2023/08/01 05:47:52;;;;;;;12.65;3.75;;;16.70;99.90;;;;;;5013697;28;20117;-86
2023/08/01 05:50:18;;;;;;;10.63;3.85;;;16.70;99.90;;;;;;5014118;28;20021;-86
2023/08/01 05:52:43;;;;;;;14.98;3.53;;;16.60;99.90;;;;;;5013976;28;20481;-86
2023/08/01 05:55:09;;;;;;;11.75;4.65;;;16.60;99.90;;;;;;5013971;28;20029;-86
2023/08/01 05:57:35;;;;;;;8.98;4.07;;;17.70;99.90;;;;;;5013488;28;20374;-88
2023/08/01 06:00:00;;;;;;;14.77;4.47;;;16.60;99.90;;;;;;5013554;28;20038;-86
2023/08/01 06:02:27;;;;;;;13.25;3.63;;;17.30;99.90;;;;;;5013989;28;20057;-85
2023/08/01 06:04:52;;;;;;;11.70;4.65;;;16.60;99.90;;;;;;5013094;28;20029;-86
2023/08/01 06:07:22;;;;;;;10.18;3.45;;;16.80;99.90;;;;;;5013974;28;20025;-87
2023/08/01 06:09:50;;;;;;;8.25;3.53;;;16.60;99.90;;;;;;5015531;28;20018;-86
2023/08/01 06:12:16;;;;;;;12.40;3.42;;;16.60;99.90;;;;;;5020683;28;20033;-87
2023/08/01 06:14:42;;;;;;;10.93;3.83;;;16.60;99.90;;;;;;5013567;28;20033;-87
2023/08/01 06:17:07;;;;;;;8.57;4.07;;;16.60;99.90;;;;;;5013104;28;20375;-90
2023/08/01 06:19:33;;;;;;;8.73;3.45;;;16.70;99.90;;;;;;5015538;28;20030;-89
2023/08/01 06:22:00;;;;;;;14.50;3.65;;;16.60;99.90;;;;;;5022851;28;20033;-89
2023/08/01 06:24:25;;;;;;;9.32;3.28;;;17.30;99.90;;;;;;5024294;28;20544;-89
2023/08/01 06:26:51;;;;;;;9.73;4.05;;;16.70;99.90;;;;;;5015642;28;20018;-85
2023/08/01 06:29:16;;;;;;;10.02;3.97;;;16.70;99.90;;;;;;5000758;28;20485;-86
2023/08/01 06:31:42;;;;;;;13.68;4.05;;;16.80;99.90;;;;;;5012826;28;20078;-86
2023/08/01 06:34:07;;;;;;;9.57;3.70;;;16.80;99.90;;;;;;5013402;28;20061;-90
2023/08/01 06:36:33;;;;;;;9.50;3.30;;;16.80;99.90;;;;;;5011062;28;20041;-89
2023/08/01 06:38:59;;;;;;;12.18;3.50;;;16.90;99.90;;;;;;5013388;28;20156;-89
2023/08/01 06:41:24;;;;;;;24.33;4.40;;;17.30;99.90;;;;;;5011604;28;20027;-86
2023/08/01 06:43:50;;;;;;;10.65;3.78;;;16.90;99.90;;;;;;5012737;28;20022;-86
2023/08/01 06:46:15;;;;;;;15.85;3.90;;;17.00;99.90;;;;;;5009597;28;20583;-89
2023/08/01 06:48:41;;;;;;;8.20;3.35;;;17.00;99.90;;;;;;5006473;28;20037;-87
2023/08/01 06:51:06;;;;;;;13.88;3.97;;;17.10;99.90;;;;;;5010643;28;20117;-88
2023/08/01 06:53:32;;;;;;;8.18;3.42;;;17.10;99.90;;;;;;5003364;28;20477;-86
2023/08/01 06:55:57;;;;;;;9.05;3.70;;;17.20;99.90;;;;;;4996580;28;20033;-87
2023/08/01 06:58:23;;;;;;;13.82;3.75;;;17.20;99.90;;;;;;4999395;28;20025;-87
2023/08/01 07:00:49;;;;;;;10.63;4.05;;;17.30;99.90;;;;;;5010327;28;20095;-87
2023/08/01 07:03:14;;;;;;;9.82;3.75;;;17.30;99.90;;;;;;5012111;28;20040;-88
2023/08/01 07:05:40;;;;;;;8.82;4.05;;;17.30;99.90;;;;;;5014317;28;20053;-88
2023/08/01 07:08:05;;;;;;;8.15;2.90;;;17.30;99.90;;;;;;5012579;28;20022;-86
2023/08/01 07:10:35;;;;;;;9.25;3.40;;;17.30;99.90;;;;;;4996772;28;20119;-86
2023/08/01 07:13:03;;;;;;;9.65;2.92;;;17.30;99.90;;;;;;5012888;28;20129;-87
2023/08/01 07:15:29;;;;;;;11.20;3.80;;;17.30;99.90;;;;;;5012403;28;20036;-87
2023/08/01 07:17:55;;;;;;;9.95;3.28;;;17.70;99.90;;;;;;5000302;28;20105;-89
2023/08/01 07:20:20;;;;;;;10.57;3.55;;;17.20;99.90;;;;;;5011717;28;20022;-87
2023/08/01 07:22:46;;;;;;;11.00;3.83;;;17.40;99.90;;;;;;5013488;28;20037;-87
2023/08/01 07:25:11;;;;;;;11.70;3.60;;;17.20;99.90;;;;;;5008471;28;20589;-89
2023/08/01 07:27:37;;;;;;;7.70;3.75;;;18.20;99.90;;;;;;5008714;28;20496;-89
2023/08/01 07:30:04;;;;;;;7.70;3.58;;;18.00;99.90;;;;;;5015215;28;20022;-89
2023/08/01 07:32:30;;;;;;;11.52;4.05;;;17.20;99.90;;;;;;5018700;28;20030;-90
2023/08/01 07:34:55;;;;;;;10.55;3.03;;;17.20;99.90;;;;;;5033593;28;20097;-90
2023/08/01 07:37:21;;;;;;;8.82;2.92;;;17.20;99.90;;;;;;5016131;28;20015;-90
2023/08/01 07:39:46;;;;;;;9.20;3.10;;;17.30;99.90;;;;;;5013543;28;20037;-91
2023/08/01 07:42:12;;;;;;;11.18;3.30;;;17.30;99.90;;;;;;5013104;28;20116;-90
2023/08/01 07:44:37;;;;;;;7.50;3.10;;;17.20;99.90;;;;;;5006549;28;20043;-91
2023/08/01 07:47:03;;;;;;;9.80;3.17;;;17.30;99.90;;;;;;5012007;28;20041;-90
2023/08/01 07:49:29;;;;;;;6.13;3.00;;;17.40;99.90;;;;;;5000910;28;20023;-90
2023/08/01 07:51:54;;;;;;;7.57;2.90;;;17.30;99.90;;;;;;5011340;28;20088;-94
2023/08/01 07:54:20;;;;;;;4.65;2.20;;;17.40;99.90;;;;;;5015240;28;20060;-94
2023/08/01 07:56:48;;;;;;;6.05;2.75;;;17.60;99.90;;;;;;4995465;28;20031;-93
2023/08/01 07:59:14;;;;;;;6.55;2.45;;;17.40;99.90;;;;;;5020725;28;20133;-92
2023/08/01 08:01:40;;;;;;;10.13;3.15;;;17.50;99.90;;;;;;5011893;28;20177;-93
2023/08/01 08:04:05;;;;;;;11.30;3.08;;;17.50;99.90;;;;;;5010370;28;20025;-93
2023/08/01 08:06:31;;;;;;;8.18;2.67;;;18.20;99.90;;;;;;4999179;28;20018;-88
2023/08/01 08:08:57;;;;;;;6.65;2.72;;;17.50;99.90;;;;;;5012202;28;20076;-87
2023/08/01 08:11:23;;;;;;;10.30;2.78;;;17.50;99.90;;;;;;5007678;28;20418;-91
2023/08/01 08:13:50;;;;;;;8.40;2.30;;;17.50;99.90;;;;;;4996563;28;20058;-92
2023/08/01 08:16:17;;;;;;;7.65;2.05;;;17.60;99.90;;;;;;5012371;28;20113;-91
2023/08/01 08:18:42;;;;;;;10.02;3.05;;;17.60;99.90;;;;;;5013357;28;20029;-92
2023/08/01 08:21:08;;;;;;;4.82;2.30;;;17.60;99.90;;;;;;5027704;28;20022;-94
2023/08/01 08:23:33;;;;;;;6.60;2.50;;;17.50;99.90;;;;;;5005206;28;20034;-95
2023/08/01 08:25:59;;;;;;;5.93;2.53;;;17.50;99.90;;;;;;5012700;28;20112;-92
2023/08/01 08:28:30;;;;;;;8.05;3.08;;;17.50;99.90;;;;;;5014236;28;20473;-90
2023/08/01 08:30:56;;;;;;;12.65;3.17;;;17.60;99.90;;;;;;5009814;28;20443;-90
2023/08/01 08:33:21;;;;;;;4.45;2.47;;;17.70;99.90;;;;;;5004322;28;20184;-93
2023/08/01 08:35:47;;;;;;;3.33;2.25;;;17.70;99.90;;;;;;5013563;28;20026;-91
2023/08/01 08:38:13;;;;;;;8.45;3.30;;;17.80;99.90;;;;;;5002349;28;20054;-92
2023/08/01 08:43:16;;;;;;;6.82;2.70;;;18.00;99.90;;;;;;5418650;23;20092;-93
2023/08/01 08:45:45;;;;;;;9.40;2.97;;;18.00;99.90;;;;;;4998688;28;20317;-90
2023/08/01 08:48:21;;;;;;;6.43;2.63;;;18.10;99.90;;;;;;4997986;28;20022;-90
2023/08/01 08:50:47;;;;;;;5.25;2.47;;;18.10;99.90;;;;;;4986295;28;20031;-91
2023/08/01 08:53:13;;;;;;;9.07;2.60;;;18.10;99.90;;;;;;4997187;28;20506;-88
2023/08/01 08:55:43;;;;;;;10.40;2.47;;;18.00;99.90;;;;;;4996780;28;20026;-93
2023/08/01 08:58:08;;;;;;;11.77;2.80;;;18.30;99.90;;;;;;5001929;28;20044;-90
2023/08/01 09:00:37;;;;;;;7.45;2.13;;;17.90;99.90;;;;;;4996466;28;20019;-87
2023/08/01 09:03:04;;;;;;;5.97;2.75;;;17.90;99.90;;;;;;4992043;28;20034;-88
2023/08/01 09:05:41;;;;;;;7.07;2.45;;;18.90;99.90;;;;;;4998908;28;20082;-87
2023/08/01 09:08:11;;;;;;;7.40;2.63;;;17.80;99.90;;;;;;5000561;28;20512;-86
2023/08/01 09:10:37;;;;;;;5.60;2.50;;;17.70;99.90;;;;;;4982435;28;20031;-86
2023/08/01 09:13:03;;;;;;;7.43;3.00;;;17.60;99.90;;;;;;4995165;28;20038;-86
2023/08/01 09:15:29;;;;;;;5.13;2.50;;;17.80;99.90;;;;;;4994821;28;20023;-87
2023/08/01 09:18:00;;;;;;;12.15;3.13;;;17.50;99.90;;;;;;4995864;28;20029;-87
2023/08/01 09:20:30;;;;;;;16.90;3.80;;;18.20;99.90;;;;;;4994825;28;20022;-87
2023/08/01 09:22:55;;;;;;;5.43;2.42;;;17.60;99.90;;;;;;4996725;28;20100;-87
2023/08/01 09:25:32;;;;;;;11.32;3.83;;;18.10;99.90;;;;;;4995231;28;20019;-87
2023/08/01 09:27:58;;;;;;;11.63;3.80;;;17.80;99.90;;;;;;4983706;28;20034;-88
2023/08/01 09:30:23;;;;;;;10.98;3.30;;;17.80;99.90;;;;;;5000146;28;20032;-87
2023/08/01 09:32:56;;;;;;;8.95;2.58;;;17.80;99.90;;;;;;4990529;28;20041;-87
2023/08/01 09:35:22;;;;;;;5.78;2.53;;;17.80;99.90;;;;;;4984991;28;20022;-87
2023/08/01 09:37:48;;;;;;;6.80;2.90;;;17.70;99.90;;;;;;4994500;28;20045;-86
2023/08/01 09:40:14;;;;;;;9.85;2.72;;;17.80;99.90;;;;;;4994475;28;20038;-85
2023/08/01 09:42:40;;;;;;;11.35;3.28;;;17.80;99.90;;;;;;4993875;28;20053;-84
2023/08/01 09:45:15;;;;;;;6.60;2.65;;;17.80;99.90;;;;;;4994779;28;20026;-85
2023/08/01 09:47:43;;;;;;;6.45;2.10;;;17.80;99.90;;;;;;4989195;28;20026;-85
2023/08/01 09:50:19;;;;;;;5.93;2.38;;;18.00;99.90;;;;;;4987525;28;20030;-83
2023/08/01 09:52:52;;;;;;;7.88;2.55;;;18.10;99.90;;;;;;4996065;28;20486;-84
2023/08/01 09:55:20;;;;;;;5.90;2.38;;;18.10;99.90;;;;;;4997243;28;20037;-84
2023/08/01 09:57:48;;;;;;;6.13;2.60;;;18.10;99.90;;;;;;4995465;28;20417;-84
2023/08/01 10:00:14;;;;;;;2.58;2.00;;;18.20;99.90;;;;;;4993927;28;20029;-84
2023/08/01 10:02:42;;;;;;;8.10;2.55;;;18.20;99.90;;;;;;4994542;28;20026;-84
2023/08/01 10:05:08;;;;;;;13.90;3.28;;;18.30;99.90;;;;;;4993847;28;20034;-84
2023/08/01 10:07:38;;;;;;;4.65;1.83;;;18.30;99.90;;;;;;4993501;28;20026;-86
2023/08/01 10:10:05;;;;;;;7.13;2.40;;;18.60;99.90;;;;;;4993612;28;20113;-85
2023/08/01 10:12:31;;;;;;;5.80;2.33;;;18.30;99.90;;;;;;4993845;28;20093;-83
2023/08/01 10:14:58;;;;;;;8.88;2.78;;;18.30;99.90;;;;;;4995668;28;20089;-83
2023/08/01 10:17:25;;;;;;;9.25;3.03;;;18.60;99.90;;;;;;4993619;28;20031;-88
2023/08/01 10:19:55;;;;;;;4.13;2.13;;;18.40;99.90;;;;;;4989529;28;20105;-85
2023/08/01 10:22:22;;;;;;;5.95;2.55;;;18.40;99.90;;;;;;4993719;28;20437;-85
2023/08/01 10:24:48;;;;;;;4.18;1.73;;;18.30;99.90;;;;;;4990995;28;20113;-85
2023/08/01 10:27:18;;;;;;;12.10;2.70;;;18.40;99.90;;;;;;4993031;28;20089;-84
2023/08/01 10:29:44;;;;;;;4.03;1.60;;;18.40;99.90;;;;;;4992062;28;20275;-85
2023/08/01 10:32:10;;;;;;;7.13;1.83;;;18.50;99.90;;;;;;4993413;28;20037;-85
2023/08/01 10:34:36;;;;;;;5.97;2.10;;;18.50;99.90;;;;;;5003051;28;20466;-85
2023/08/01 10:37:02;;;;;;;8.25;2.28;;;18.60;99.90;;;;;;5003447;28;20061;-84
2023/08/01 10:39:28;;;;;;;8.43;2.35;;;18.60;99.90;;;;;;4998396;28;20092;-85
2023/08/01 10:42:05;;;;;;;8.45;2.17;;;18.50;99.90;;;;;;4994232;28;20022;-85
2023/08/01 10:44:33;;;;;;;5.55;2.20;;;18.50;99.90;;;;;;4993198;28;20128;-85
2023/08/01 10:47:03;;;;;;;4.55;1.95;;;18.50;99.90;;;;;;4994367;28;20038;-85
2023/08/01 10:49:40;;;;;;;13.43;2.72;;;18.50;99.90;;;;;;4993323;28;20120;-85
2023/08/01 10:52:28;;;;;;;6.35;2.38;;;18.50;99.90;;;;;;4993383;28;20035;-85
2023/08/01 10:55:02;;;;;;;7.13;2.33;;;18.60;99.90;;;;;;4994192;28;20418;-84
2023/08/01 10:57:30;;;;;;;9.10;3.08;;;18.40;99.90;;;;;;4993811;28;20026;-84
2023/08/01 10:59:57;;;;;;;5.57;1.95;;;18.50;99.90;;;;;;4994113;28;20474;-85
2023/08/01 11:02:25;;;;;;;5.93;2.15;;;18.60;99.90;;;;;;4993574;28;20397;-85
2023/08/01 11:05:02;;;;;;;10.38;2.10;;;18.60;99.90;;;;;;4992810;28;20155;-85
2023/08/01 11:07:28;;;;;;;5.80;2.83;;;18.70;99.90;;;;;;4993044;28;20023;-85
2023/08/01 11:10:08;;;;;;;7.00;2.15;;;18.70;99.90;;;;;;4993665;28;20033;-84
2023/08/01 11:12:38;;;;;;;7.25;2.25;;;18.60;99.90;;;;;;4993630;28;20034;-85
2023/08/01 11:15:07;;;;;;;7.20;2.47;;;18.60;99.90;;;;;;4993524;28;20027;-85
2023/08/01 11:17:34;;;;;;;10.05;3.05;;;18.50;99.90;;;;;;4993128;28;20038;-85
2023/08/01 11:20:10;;;;;;;11.82;2.90;;;18.50;99.90;;;;;;4993055;28;20019;-85
2023/08/01 11:22:37;;;;;;;8.55;2.63;;;18.30;99.90;;;;;;4993076;28;20033;-85
2023/08/01 11:25:03;;;;;;;6.28;3.30;;;18.70;99.90;;;;;;4993052;28;20072;-85
2023/08/01 11:27:29;;;;;;;9.50;3.28;;;18.30;99.90;;;;;;4992221;28;20173;-84
2023/08/01 11:29:55;;;;;;;7.40;2.20;;;18.30;99.90;;;;;;4993393;28;20537;-85
2023/08/01 11:32:32;;;;;;;8.18;2.33;;;18.20;99.90;;;;;;4993188;28;20072;-85
2023/08/01 11:34:57;;;;;;;7.72;2.35;;;18.30;99.90;;;;;;4994361;28;20105;-85
2023/08/01 11:37:25;;;;;;;7.80;2.78;;;18.30;99.90;;;;;;4993528;28;20530;-85
2023/08/01 11:39:51;;;;;;;9.52;2.63;;;18.20;99.90;;;;;;4992567;28;20030;-85
2023/08/01 11:42:17;;;;;;;7.05;2.63;;;18.20;99.90;;;;;;4992248;28;20037;-85
2023/08/01 11:44:44;;;;;;;7.70;2.80;;;18.40;99.90;;;;;;4992835;28;20125;-85
2023/08/01 11:47:17;;;;;;;10.23;3.20;;;18.20;99.90;;;;;;4992849;28;20061;-85
2023/08/01 11:49:47;;;;;;;8.05;3.13;;;18.20;99.90;;;;;;4992165;28;20082;-85
2023/08/01 11:52:26;;;;;;;7.68;3.15;;;18.20;99.90;;;;;;4992611;28;20066;-85
2023/08/01 11:54:52;;;;;;;12.80;3.05;;;18.20;99.90;;;;;;4992429;28;20026;-84
2023/08/01 11:57:18;;;;;;;13.40;2.78;;;18.20;99.90;;;;;;4994668;28;20027;-85
2023/08/01 11:59:52;;;;;;;13.43;3.20;;;18.20;99.90;;;;;;4992332;28;20149;-84
2023/08/01 12:02:35;;;;;;;9.50;2.30;;;18.70;99.90;;;;;;4992729;28;20023;-85
2023/08/01 12:05:01;;;;;;;7.22;1.98;;;18.30;99.90;;;;;;4993156;28;20031;-85
2023/08/01 12:07:29;;;;;;;6.82;2.28;;;18.50;99.90;;;;;;4992685;28;20027;-85
2023/08/01 12:09:56;;;;;;;18.17;3.78;;;18.60;99.90;;;;;;4992651;28;20080;-85
2023/08/01 12:12:22;;;;;;;8.70;1.80;;;18.70;99.90;;;;;;4992667;28;20026;-85
2023/08/01 12:14:47;;;;;;;5.38;2.58;;;18.80;99.90;;;;;;4992373;28;20154;-85
2023/08/01 12:17:13;;;;;;;10.40;2.70;;;18.70;99.90;;;;;;4994143;28;20038;-86
2023/08/01 12:19:38;;;;;;;8.05;2.35;;;18.70;99.90;;;;;;4996759;28;20027;-85
2023/08/01 12:22:04;;;;;;;7.15;2.28;;;18.70;99.90;;;;;;4996797;28;20034;-85
2023/08/01 12:24:30;;;;;;;5.38;1.92;;;18.60;99.90;;;;;;4996213;28;20529;-85
2023/08/01 12:26:55;;;;;;;6.22;2.00;;;18.60;99.90;;;;;;4996822;28;20448;-86
2023/08/01 12:29:21;;;;;;;17.45;2.67;;;18.70;99.90;;;;;;4996972;28;20058;-86
2023/08/01 12:31:46;;;;;;;8.57;2.10;;;18.70;99.90;;;;;;4999150;28;20105;-86
2023/08/01 12:34:12;;;;;;;6.97;2.50;;;18.90;99.90;;;;;;4998865;28;20026;-85
2023/08/01 12:36:37;;;;;;;6.15;1.80;;;18.70;99.90;;;;;;4996428;28;20023;-86
2023/08/01 12:39:03;;;;;;;6.72;2.10;;;18.70;99.90;;;;;;4996664;28;20032;-85
2023/08/01 12:41:29;;;;;;;7.93;2.03;;;18.70;99.90;;;;;;4995976;28;20030;-86
2023/08/01 12:43:55;;;;;;;7.57;1.83;;;18.70;99.90;;;;;;4995905;28;20462;-86